Time;durP1;ratioP1;P1;durP2;ratioP2;P2;SDS_P1;SDS_P2;PMS_P1;PMS_P2;Temp;Humidity;BMP_temperature;BMP_pressure;BME280_temperature;BME280_humidity;BME280_pressure;Samples;Min_cycle;Max_cycle;Signal;HPM_P1;HPM_P2
2023/05/01 00:00:03;;;;;;;11.00;3.85;;;7.70;99.90;;;;;;5056471;28;20047;-75
2023/05/01 00:02:29;;;;;;;10.57;4.22;;;7.70;99.90;;;;;;5072881;28;20024;-75
2023/05/01 00:04:55;;;;;;;8.57;3.90;;;7.60;99.90;;;;;;5057243;28;20036;-75
2023/05/01 00:07:21;;;;;;;9.98;4.22;;;7.60;99.90;;;;;;5053527;28;20281;-75
2023/05/01 00:09:47;;;;;;;9.70;4.20;;;7.60;99.90;;;;;;5087705;28;20165;-75
2023/05/01 00:12:13;;;;;;;9.43;4.15;;;7.60;99.90;;;;;;5074762;28;20035;-75
2023/05/01 00:14:39;;;;;;;12.07;4.50;;;7.60;99.90;;;;;;5076835;28;20266;-75
2023/05/01 00:17:05;;;;;;;10.40;4.32;;;7.60;99.90;;;;;;5076446;28;20028;-75
2023/05/01 00:19:31;;;;;;;11.52;4.20;;;7.70;99.90;;;;;;5078490;28;20397;-75
2023/05/01 00:21:57;;;;;;;9.90;4.25;;;7.50;99.90;;;;;;5053374;28;20052;-75
2023/05/01 00:24:23;;;;;;;10.07;4.80;;;7.50;99.90;;;;;;5074520;28;20287;-75
2023/05/01 00:26:48;;;;;;;10.02;3.85;;;7.50;99.90;;;;;;5053709;28;20055;-75
2023/05/01 00:29:15;;;;;;;11.43;4.40;;;7.40;99.90;;;;;;5066017;28;20183;-75
2023/05/01 00:31:41;;;;;;;9.98;4.30;;;7.40;99.90;;;;;;5041158;28;20285;-75
2023/05/01 00:34:09;;;;;;;9.45;4.35;;;7.40;99.90;;;;;;5057861;28;20063;-74
2023/05/01 00:36:34;;;;;;;11.82;4.50;;;7.40;99.90;;;;;;5072772;28;20060;-75
2023/05/01 00:39:00;;;;;;;10.43;5.07;;;7.30;99.90;;;;;;5073000;28;20028;-75
2023/05/01 00:41:26;;;;;;;12.38;4.75;;;7.30;99.90;;;;;;5058325;28;20031;-75
2023/05/01 00:43:52;;;;;;;10.07;4.70;;;7.30;99.90;;;;;;5062011;28;20025;-75
2023/05/01 00:46:18;;;;;;;10.48;5.15;;;7.30;99.90;;;;;;5072562;28;20105;-74
2023/05/01 00:48:44;;;;;;;10.07;4.75;;;7.30;99.90;;;;;;5073052;28;20024;-75
2023/05/01 00:51:11;;;;;;;12.60;5.03;;;7.30;99.90;;;;;;5055390;28;20091;-74
2023/05/01 00:53:40;;;;;;;11.95;5.07;;;7.30;99.90;;;;;;5055595;28;20039;-74
2023/05/01 00:56:07;;;;;;;11.60;4.53;;;7.30;99.90;;;;;;5068467;28;20041;-75
2023/05/01 00:58:33;;;;;;;10.48;4.97;;;7.30;99.90;;;;;;5079594;28;20044;-74
2023/05/01 01:01:00;;;;;;;11.40;4.57;;;7.30;99.90;;;;;;5056968;28;20067;-74
2023/05/01 01:03:26;;;;;;;10.40;4.68;;;7.30;99.90;;;;;;5067885;28;20041;-75
2023/05/01 01:06:12;;;;;;;12.13;4.72;;;7.40;99.90;;;;;;5070472;28;20341;-75
2023/05/01 01:08:49;;;;;;;11.45;5.00;;;7.30;99.90;;;;;;5060038;28;20053;-75
2023/05/01 01:11:37;;;;;;;10.10;4.65;;;7.30;99.90;;;;;;5064586;28;20238;-75
2023/05/01 01:14:14;;;;;;;12.25;4.80;;;7.30;99.90;;;;;;5072424;28;20052;-74
2023/05/01 01:17:07;;;;;;;12.98;4.82;;;7.20;99.90;;;;;;5071926;28;21183;-75
2023/05/01 01:20:09;;;;;;;12.17;4.90;;;7.20;99.90;;;;;;5075755;28;20080;-74
2023/05/01 01:22:40;;;;;;;13.85;4.63;;;7.30;99.90;;;;;;5063254;28;20281;-75
2023/05/01 01:25:24;;;;;;;12.82;4.78;;;7.20;99.90;;;;;;5075358;28;20032;-75
2023/05/01 01:28:09;;;;;;;13.30;4.70;;;7.30;99.90;;;;;;5061495;28;20048;-74
2023/05/01 01:31:03;;;;;;;12.70;4.97;;;7.30;99.90;;;;;;5057929;28;20087;-74
2023/05/01 01:33:49;;;;;;;12.50;4.72;;;7.20;99.90;;;;;;5072039;28;20053;-74
2023/05/01 01:36:21;;;;;;;10.57;4.80;;;7.30;99.90;;;;;;5077693;28;20105;-74
2023/05/01 01:38:57;;;;;;;13.02;5.00;;;7.30;99.90;;;;;;5075292;28;20044;-74
2023/05/01 01:41:30;;;;;;;13.27;4.70;;;7.30;99.90;;;;;;5075537;28;20043;-75
2023/05/01 01:44:05;;;;;;;13.93;5.45;;;7.30;99.90;;;;;;5073343;28;20051;-74
2023/05/01 01:46:35;;;;;;;12.50;4.80;;;7.30;99.90;;;;;;5057554;28;20098;-75
2023/05/01 01:49:14;;;;;;;10.82;4.78;;;7.30;99.90;;;;;;5070200;28;20163;-74
2023/05/01 01:51:41;;;;;;;12.90;5.00;;;7.30;99.90;;;;;;5076275;28;20048;-74
2023/05/01 01:54:10;;;;;;;12.85;5.47;;;7.30;99.90;;;;;;5068843;28;20034;-74
2023/05/01 01:56:38;;;;;;;12.18;5.03;;;7.30;99.90;;;;;;5078441;28;20189;-75
2023/05/01 01:59:04;;;;;;;9.98;4.63;;;7.30;99.90;;;;;;5061557;28;20066;-74
2023/05/01 02:01:33;;;;;;;11.30;4.50;;;7.30;99.90;;;;;;5077871;28;20090;-75
2023/05/01 02:04:00;;;;;;;14.63;5.53;;;7.30;99.90;;;;;;5073808;28;20263;-75
2023/05/01 02:06:27;;;;;;;11.65;5.35;;;7.30;99.90;;;;;;5060708;28;20236;-75
2023/05/01 02:08:55;;;;;;;13.98;5.05;;;7.30;99.90;;;;;;5072584;28;20020;-75
2023/05/01 02:11:21;;;;;;;12.95;5.15;;;7.30;99.90;;;;;;5074133;28;20020;-75
2023/05/01 02:13:48;;;;;;;13.05;5.22;;;7.30;99.90;;;;;;5092156;28;20332;-75
2023/05/01 02:16:15;;;;;;;12.82;5.03;;;7.30;99.90;;;;;;5095146;28;20032;-75
2023/05/01 02:18:43;;;;;;;10.63;4.65;;;7.30;99.90;;;;;;5073509;28;20270;-75
2023/05/01 02:21:11;;;;;;;13.02;4.85;;;7.30;99.90;;;;;;5064714;28;20032;-75
2023/05/01 02:23:37;;;;;;;11.55;5.55;;;7.30;99.90;;;;;;5075389;28;20036;-74
2023/05/01 02:26:04;;;;;;;12.40;5.30;;;7.40;99.90;;;;;;5076702;28;20043;-74
2023/05/01 02:28:30;;;;;;;13.43;5.47;;;7.20;99.90;;;;;;5074399;28;20204;-74
2023/05/01 02:30:56;;;;;;;11.90;5.07;;;7.20;99.90;;;;;;5074068;28;20032;-75
2023/05/01 02:33:22;;;;;;;11.50;5.05;;;7.20;99.90;;;;;;5062926;28;20069;-75
2023/05/01 02:35:48;;;;;;;11.80;4.95;;;7.20;99.90;;;;;;5071599;28;20161;-75
2023/05/01 02:38:15;;;;;;;13.85;5.68;;;7.20;99.90;;;;;;5060356;28;20270;-75
2023/05/01 02:40:45;;;;;;;11.27;5.30;;;7.10;99.90;;;;;;5067775;28;20093;-75
2023/05/01 02:43:15;;;;;;;12.45;4.80;;;7.10;99.90;;;;;;5064982;28;20329;-75
2023/05/01 02:45:43;;;;;;;13.55;5.00;;;7.10;99.90;;;;;;5069126;28;20071;-75
2023/05/01 02:48:12;;;;;;;10.90;5.25;;;7.00;99.90;;;;;;5073824;28;20020;-75
2023/05/01 02:50:39;;;;;;;13.25;5.25;;;7.00;99.90;;;;;;5072649;28;20108;-75
2023/05/01 02:53:06;;;;;;;12.73;5.82;;;6.90;99.90;;;;;;5075902;28;20036;-75
2023/05/01 02:55:32;;;;;;;13.98;5.40;;;6.90;99.90;;;;;;5070349;28;20067;-75
2023/05/01 02:57:59;;;;;;;11.63;5.38;;;6.80;99.90;;;;;;5076165;28;20068;-75
2023/05/01 03:00:28;;;;;;;11.77;5.80;;;6.80;99.90;;;;;;5054201;28;20089;-75
2023/05/01 03:02:54;;;;;;;12.00;5.22;;;6.80;99.90;;;;;;5075164;28;20040;-75
2023/05/01 03:05:20;;;;;;;12.68;5.28;;;6.80;99.90;;;;;;5075167;28;20323;-75
2023/05/01 03:07:46;;;;;;;12.18;5.55;;;6.70;99.90;;;;;;5056153;28;20358;-75
2023/05/01 03:10:12;;;;;;;10.75;4.82;;;6.70;99.90;;;;;;5077162;28;20108;-75
2023/05/01 03:12:38;;;;;;;12.68;5.43;;;6.70;99.90;;;;;;5075327;28;20032;-75
2023/05/01 03:15:04;;;;;;;12.95;5.68;;;6.60;99.90;;;;;;5078039;28;20035;-75
2023/05/01 03:17:30;;;;;;;11.02;5.10;;;6.60;99.90;;;;;;5073765;28;20230;-75
2023/05/01 03:19:56;;;;;;;10.38;5.07;;;6.60;99.90;;;;;;5076320;28;20044;-75
2023/05/01 03:22:21;;;;;;;11.02;5.18;;;6.90;99.90;;;;;;5066553;28;20035;-75
2023/05/01 03:24:48;;;;;;;13.15;5.25;;;6.70;99.90;;;;;;5060770;28;20273;-75
2023/05/01 03:27:14;;;;;;;11.00;5.28;;;6.50;99.90;;;;;;5069948;28;20067;-75
2023/05/01 03:29:40;;;;;;;12.93;5.65;;;6.50;99.90;;;;;;5060373;28;20036;-75
2023/05/01 03:32:06;;;;;;;11.27;5.38;;;6.70;99.90;;;;;;5058713;28;20081;-75
2023/05/01 03:34:31;;;;;;;11.73;5.85;;;6.40;99.90;;;;;;5055542;28;20055;-75
2023/05/01 03:36:57;;;;;;;11.90;5.43;;;6.40;99.90;;;;;;5056819;28;20041;-75
2023/05/01 03:39:23;;;;;;;12.07;5.05;;;6.40;99.90;;;;;;5078091;28;20186;-75
2023/05/01 03:41:48;;;;;;;11.15;5.80;;;6.40;99.90;;;;;;5026678;28;20028;-75
2023/05/01 03:44:14;;;;;;;12.57;5.88;;;6.40;99.90;;;;;;5091675;28;20085;-75
2023/05/01 03:46:40;;;;;;;12.93;6.00;;;6.40;99.90;;;;;;5076088;28;20105;-76
2023/05/01 03:49:06;;;;;;;12.73;5.40;;;6.30;99.90;;;;;;5072591;28;20048;-75
2023/05/01 03:51:32;;;;;;;11.60;5.60;;;6.30;99.90;;;;;;5075043;28;20277;-75
2023/05/01 03:53:58;;;;;;;12.32;5.93;;;6.30;99.90;;;;;;5069093;28;20051;-75
2023/05/01 03:56:24;;;;;;;13.13;5.70;;;6.20;99.90;;;;;;5076139;28;20028;-75
2023/05/01 03:58:51;;;;;;;11.75;5.65;;;6.20;99.90;;;;;;5076925;28;20028;-75
2023/05/01 04:01:17;;;;;;;12.68;5.85;;;6.40;99.90;;;;;;5083367;28;20099;-75
2023/05/01 04:03:43;;;;;;;11.07;5.63;;;6.40;99.90;;;;;;5055245;28;20040;-75
2023/05/01 04:06:09;;;;;;;12.20;6.30;;;6.20;99.90;;;;;;5070067;28;20081;-75
2023/05/01 04:08:35;;;;;;;13.55;5.75;;;6.10;99.90;;;;;;5072307;28;20143;-75
2023/05/01 04:11:00;;;;;;;12.90;5.97;;;6.40;99.90;;;;;;5060294;28;20024;-75
2023/05/01 04:13:26;;;;;;;13.10;6.25;;;6.10;99.90;;;;;;5072834;28;20237;-75
2023/05/01 04:15:54;;;;;;;12.85;5.88;;;6.00;99.90;;;;;;5075468;28;20107;-75
2023/05/01 04:18:20;;;;;;;12.63;5.53;;;6.00;99.90;;;;;;5074402;28;20040;-75
2023/05/01 04:20:46;;;;;;;13.13;6.22;;;6.00;99.90;;;;;;5057608;28;20031;-75
2023/05/01 04:23:11;;;;;;;12.05;5.90;;;6.00;99.90;;;;;;5054636;28;20192;-75
2023/05/01 04:25:37;;;;;;;11.75;5.50;;;6.00;99.90;;;;;;5060376;28;20204;-75
2023/05/01 04:28:04;;;;;;;12.43;5.70;;;5.90;99.90;;;;;;5074823;28;20032;-75
2023/05/01 04:30:32;;;;;;;13.02;5.95;;;5.90;99.90;;;;;;5073331;28;20107;-75
2023/05/01 04:32:58;;;;;;;12.95;6.00;;;6.00;99.90;;;;;;5070004;28;20141;-75
2023/05/01 04:35:24;;;;;;;12.25;6.00;;;6.40;99.90;;;;;;5068007;28;21149;-75
2023/05/01 04:37:50;;;;;;;14.18;6.30;;;6.10;99.90;;;;;;5061883;28;20036;-75
2023/05/01 04:40:16;;;;;;;12.85;5.90;;;6.40;99.90;;;;;;5045192;28;20115;-75
2023/05/01 04:42:42;;;;;;;13.73;6.68;;;6.20;99.90;;;;;;5056107;28;20285;-75
2023/05/01 04:45:08;;;;;;;13.60;6.47;;;6.10;99.90;;;;;;5049561;28;20039;-75
2023/05/01 04:47:34;;;;;;;13.30;6.05;;;6.40;99.90;;;;;;5067434;28;20032;-75
2023/05/01 04:50:00;;;;;;;14.40;7.07;;;6.20;99.90;;;;;;5067837;28;21142;-75
2023/05/01 04:52:25;;;;;;;14.30;6.80;;;6.10;99.90;;;;;;5064945;28;20087;-75
2023/05/01 04:54:51;;;;;;;11.48;6.10;;;6.20;99.90;;;;;;5077040;28;20127;-75
2023/05/01 04:57:17;;;;;;;13.73;6.80;;;6.20;99.90;;;;;;5058614;28;20027;-75
2023/05/01 04:59:43;;;;;;;13.18;6.30;;;6.40;99.90;;;;;;5070918;28;20063;-75
2023/05/01 05:02:08;;;;;;;14.23;6.55;;;6.40;99.90;;;;;;5077807;28;20066;-74
2023/05/01 05:04:34;;;;;;;13.50;6.90;;;6.70;99.90;;;;;;5052905;28;20047;-75
2023/05/01 05:07:00;;;;;;;13.68;6.68;;;6.60;99.90;;;;;;5069010;28;20113;-75
2023/05/01 05:09:25;;;;;;;12.70;6.30;;;6.70;99.90;;;;;;5072172;28;20050;-75
2023/05/01 05:11:51;;;;;;;14.57;6.50;;;6.80;99.90;;;;;;5067486;28;20032;-75
2023/05/01 05:14:17;;;;;;;13.00;6.32;;;6.80;99.90;;;;;;5081106;28;20048;-75
2023/05/01 05:16:42;;;;;;;13.75;6.78;;;6.90;99.90;;;;;;5069607;28;20036;-74
2023/05/01 05:19:08;;;;;;;14.23;6.75;;;7.00;99.90;;;;;;5060220;28;20052;-74
2023/05/01 05:21:34;;;;;;;15.00;7.05;;;7.10;99.90;;;;;;5068611;28;20059;-74
2023/05/01 05:24:00;;;;;;;13.90;6.55;;;7.20;99.90;;;;;;5082186;28;20027;-74
2023/05/01 05:26:26;;;;;;;15.85;6.55;;;7.30;99.90;;;;;;5051350;28;20063;-74
2023/05/01 05:28:52;;;;;;;14.00;6.10;;;7.50;99.90;;;;;;5071601;28;20107;-74
2023/05/01 05:31:18;;;;;;;13.20;6.50;;;7.40;99.90;;;;;;5072165;28;20055;-74
2023/05/01 05:33:43;;;;;;;14.23;6.90;;;7.50;99.90;;;;;;5076504;28;20027;-74
2023/05/01 05:36:10;;;;;;;15.30;6.85;;;7.60;99.90;;;;;;5082772;28;20289;-74
2023/05/01 05:38:35;;;;;;;15.25;6.78;;;7.70;99.90;;;;;;5068704;28;20020;-74
2023/05/01 05:41:01;;;;;;;16.13;6.53;;;7.80;99.90;;;;;;5059961;28;20250;-74
2023/05/01 05:43:27;;;;;;;16.90;7.20;;;8.00;99.90;;;;;;5074490;28;20056;-74
2023/05/01 05:45:57;;;;;;;14.02;6.68;;;8.00;99.90;;;;;;5068404;28;20181;-74
2023/05/01 05:48:23;;;;;;;14.38;6.82;;;8.10;99.90;;;;;;5084200;28;20040;-74
2023/05/01 05:50:51;;;;;;;18.45;7.38;;;8.10;99.90;;;;;;5060751;28;20036;-74
2023/05/01 05:53:18;;;;;;;13.68;6.65;;;8.10;99.90;;;;;;5064623;28;20024;-74
2023/05/01 05:55:45;;;;;;;14.02;7.25;;;8.10;99.90;;;;;;5065143;28;20078;-74
2023/05/01 05:58:10;;;;;;;14.20;6.93;;;8.20;99.90;;;;;;5070043;28;20036;-74
2023/05/01 06:00:36;;;;;;;13.93;6.78;;;8.20;99.90;;;;;;5083921;28;20036;-74
2023/05/01 06:03:02;;;;;;;14.73;7.43;;;8.20;99.90;;;;;;5070173;28;20107;-74
2023/05/01 06:05:28;;;;;;;13.40;6.95;;;8.30;99.90;;;;;;5075384;28;20032;-75
2023/05/01 06:07:54;;;;;;;12.30;6.28;;;8.30;99.90;;;;;;5056043;28;20032;-75
2023/05/01 06:10:20;;;;;;;13.98;6.40;;;8.40;99.90;;;;;;5074779;28;20019;-75
2023/05/01 06:12:46;;;;;;;16.98;6.60;;;8.40;99.90;;;;;;5079415;28;20220;-75
2023/05/01 06:15:15;;;;;;;14.00;6.80;;;8.60;99.90;;;;;;5067846;28;20055;-75
2023/05/01 06:17:42;;;;;;;13.25;6.30;;;8.70;99.90;;;;;;5058918;28;20028;-75
2023/05/01 06:20:09;;;;;;;11.57;6.30;;;8.70;99.90;;;;;;5068262;28;20182;-75
2023/05/01 06:22:34;;;;;;;13.63;6.70;;;8.80;99.90;;;;;;5061099;28;20028;-75
2023/05/01 06:25:00;;;;;;;14.65;6.45;;;8.90;99.90;;;;;;5049675;28;20203;-75
2023/05/01 06:27:26;;;;;;;16.58;7.03;;;9.00;99.90;;;;;;5067081;28;20032;-75
2023/05/01 06:29:52;;;;;;;14.00;7.05;;;9.10;99.90;;;;;;5069230;28;20176;-75
2023/05/01 06:32:18;;;;;;;15.55;6.68;;;9.10;99.90;;;;;;5068126;28;20047;-75
2023/05/01 06:34:43;;;;;;;16.27;7.50;;;9.20;99.90;;;;;;5062494;28;20168;-74
2023/05/01 06:37:09;;;;;;;15.05;6.75;;;9.30;99.90;;;;;;5071946;28;20059;-75
2023/05/01 06:39:35;;;;;;;16.10;7.00;;;9.40;99.90;;;;;;5067231;28;20040;-74
2023/05/01 06:42:02;;;;;;;13.90;6.70;;;9.50;99.90;;;;;;5057761;28;20068;-75
2023/05/01 06:44:28;;;;;;;15.02;6.63;;;9.60;99.90;;;;;;5074593;28;20054;-75
2023/05/01 06:46:55;;;;;;;14.02;6.57;;;9.80;99.90;;;;;;5054890;28;20052;-75
2023/05/01 06:49:21;;;;;;;14.35;7.10;;;9.90;99.90;;;;;;5078752;28;20033;-75
2023/05/01 06:51:47;;;;;;;14.18;6.70;;;10.00;99.90;;;;;;5061494;28;20033;-75
2023/05/01 06:54:13;;;;;;;14.32;6.80;;;10.10;99.90;;;;;;5061992;28;20047;-74
2023/05/01 06:56:39;;;;;;;15.52;6.95;;;10.20;99.90;;;;;;5039166;28;20065;-75
2023/05/01 06:59:05;;;;;;;15.60;7.63;;;10.30;99.90;;;;;;5040580;28;20050;-75
2023/05/01 07:01:30;;;;;;;16.00;7.30;;;10.30;99.90;;;;;;5058431;28;20119;-75
2023/05/01 07:03:56;;;;;;;16.20;7.10;;;10.40;99.90;;;;;;5062020;28;20056;-75
2023/05/01 07:06:22;;;;;;;14.25;7.30;;;10.50;99.90;;;;;;5071237;28;20263;-75
2023/05/01 07:08:48;;;;;;;14.05;6.80;;;10.60;99.90;;;;;;5062380;28;20032;-74
2023/05/01 07:11:13;;;;;;;16.17;7.20;;;10.70;99.90;;;;;;5059197;28;20052;-75
2023/05/01 07:13:39;;;;;;;13.50;7.05;;;10.80;99.90;;;;;;5051546;28;20132;-75
2023/05/01 07:16:05;;;;;;;14.30;6.85;;;10.90;99.90;;;;;;5044032;28;20045;-75
2023/05/01 07:18:31;;;;;;;14.77;6.80;;;11.10;99.90;;;;;;5060253;28;20060;-75
2023/05/01 07:20:58;;;;;;;15.43;6.65;;;11.10;99.90;;;;;;5042318;28;20044;-75
2023/05/01 07:23:24;;;;;;;14.98;6.60;;;11.20;99.90;;;;;;5045355;28;20126;-75
2023/05/01 07:25:51;;;;;;;15.55;6.75;;;11.30;99.90;;;;;;5063932;28;20344;-75
2023/05/01 07:28:18;;;;;;;17.92;7.20;;;11.30;99.90;;;;;;5071529;28;20082;-75
2023/05/01 07:30:44;;;;;;;15.90;6.95;;;11.40;99.90;;;;;;5065056;28;20037;-75
2023/05/01 07:33:10;;;;;;;14.75;7.70;;;11.50;99.90;;;;;;5057336;28;20107;-74
2023/05/01 07:35:36;;;;;;;16.00;7.00;;;11.60;99.90;;;;;;5072404;28;20109;-75
2023/05/01 07:38:02;;;;;;;14.40;6.68;;;11.70;99.90;;;;;;5065551;28;20021;-75
2023/05/01 07:40:28;;;;;;;14.30;7.38;;;11.80;99.90;;;;;;5073008;28;20231;-75
2023/05/01 07:42:53;;;;;;;15.70;6.88;;;12.00;99.90;;;;;;5070103;28;20028;-75
2023/05/01 07:45:19;;;;;;;15.52;6.90;;;12.20;99.90;;;;;;5055326;28;20267;-75
2023/05/01 07:47:46;;;;;;;15.18;6.50;;;12.30;99.90;;;;;;5052917;28;20028;-74
2023/05/01 07:50:12;;;;;;;15.25;6.85;;;12.40;99.90;;;;;;5063384;28;20040;-75
2023/05/01 07:52:38;;;;;;;13.05;6.32;;;12.50;99.90;;;;;;5062999;28;20039;-75
2023/05/01 07:55:04;;;;;;;15.98;6.72;;;12.60;99.90;;;;;;5058767;28;20036;-74
2023/05/01 07:57:32;;;;;;;13.57;7.10;;;12.70;99.90;;;;;;5062376;28;20040;-75
2023/05/01 07:59:58;;;;;;;13.40;6.60;;;13.00;99.90;;;;;;5060841;28;20051;-75
2023/05/01 08:02:24;;;;;;;15.70;7.03;;;13.10;99.90;;;;;;5065923;28;20167;-75
2023/05/01 08:04:50;;;;;;;15.10;6.70;;;13.30;99.90;;;;;;5064634;28;20043;-75
2023/05/01 08:07:16;;;;;;;15.32;6.68;;;13.60;99.90;;;;;;5040008;28;20285;-75
2023/05/01 08:09:42;;;;;;;15.18;6.60;;;13.60;99.90;;;;;;5064685;28;20274;-75
2023/05/01 08:12:07;;;;;;;13.32;6.10;;;13.70;99.90;;;;;;5068813;28;20035;-75
2023/05/01 08:14:33;;;;;;;11.93;5.85;;;13.70;99.90;;;;;;5067130;28;20155;-75
2023/05/01 08:16:59;;;;;;;15.23;5.90;;;13.80;99.90;;;;;;5079705;28;20284;-75
2023/05/01 08:19:26;;;;;;;13.05;5.93;;;13.90;99.90;;;;;;5062449;28;20083;-75
2023/05/01 08:21:52;;;;;;;14.82;6.03;;;13.90;99.90;;;;;;5035684;28;20286;-75
2023/05/01 08:24:18;;;;;;;11.55;5.38;;;14.00;99.90;;;;;;5074010;28;20024;-75
2023/05/01 08:26:44;;;;;;;15.48;5.60;;;14.10;99.90;;;;;;5097232;28;20199;-75
2023/05/01 08:29:10;;;;;;;14.30;6.07;;;14.10;99.90;;;;;;5068619;28;20079;-75
2023/05/01 08:31:38;;;;;;;11.77;5.70;;;14.10;99.90;;;;;;5046849;28;20079;-75
2023/05/01 08:34:04;;;;;;;13.48;5.70;;;14.00;99.90;;;;;;5085952;28;20024;-75
2023/05/01 08:36:31;;;;;;;11.73;5.90;;;13.90;99.90;;;;;;5042024;28;20032;-75
2023/05/01 08:38:57;;;;;;;11.93;5.65;;;13.90;99.90;;;;;;5062187;28;20220;-75
2023/05/01 08:41:26;;;;;;;11.27;4.88;;;14.00;99.90;;;;;;5070523;28;20047;-75
2023/05/01 08:43:52;;;;;;;11.40;4.80;;;14.20;99.90;;;;;;5071433;28;20170;-75
2023/05/01 08:46:32;;;;;;;11.07;5.40;;;14.40;99.90;;;;;;5068031;28;20020;-75
2023/05/01 08:48:59;;;;;;;12.35;5.78;;;14.60;99.90;;;;;;5067177;28;20048;-75
2023/05/01 08:51:25;;;;;;;11.10;5.00;;;14.80;99.90;;;;;;5054876;28;20043;-75
2023/05/01 08:53:53;;;;;;;14.20;6.18;;;14.80;99.90;;;;;;5060678;28;20156;-75
2023/05/01 08:56:22;;;;;;;14.20;5.75;;;14.80;99.90;;;;;;5072291;28;20177;-75
2023/05/01 08:58:49;;;;;;;11.40;5.20;;;14.90;99.90;;;;;;5065295;28;20032;-75
2023/05/01 09:01:16;;;;;;;12.52;5.50;;;15.00;99.90;;;;;;5061933;28;20056;-75
2023/05/01 09:03:43;;;;;;;13.18;5.40;;;15.10;99.90;;;;;;5045980;28;20213;-75
2023/05/01 09:06:10;;;;;;;13.93;5.45;;;15.10;99.90;;;;;;5060181;28;20097;-75
2023/05/01 09:08:36;;;;;;;11.85;5.20;;;15.30;99.90;;;;;;5072064;28;20053;-75
2023/05/01 09:11:02;;;;;;;13.00;5.70;;;15.40;99.90;;;;;;5059274;28;20075;-75
2023/05/01 09:13:29;;;;;;;13.93;5.15;;;15.60;99.90;;;;;;5063122;28;20084;-75
2023/05/01 09:15:55;;;;;;;15.52;5.22;;;15.70;99.90;;;;;;5053122;28;20057;-75
2023/05/01 09:18:21;;;;;;;11.30;4.03;;;15.80;99.90;;;;;;5062543;28;20028;-75
2023/05/01 09:20:47;;;;;;;11.68;4.30;;;15.90;99.90;;;;;;5051424;28;20048;-75
2023/05/01 09:23:14;;;;;;;11.73;4.20;;;16.00;99.90;;;;;;5052733;28;20036;-76
2023/05/01 09:25:40;;;;;;;10.23;3.40;;;16.10;99.90;;;;;;5060261;28;20056;-75
2023/05/01 09:28:06;;;;;;;10.70;3.70;;;16.20;99.90;;;;;;5065807;28;20049;-75
2023/05/01 09:30:36;;;;;;;12.18;3.88;;;16.30;99.90;;;;;;5057025;28;20295;-75
2023/05/01 09:33:10;;;;;;;11.45;4.00;;;16.50;99.90;;;;;;5062101;28;20057;-75
2023/05/01 09:35:57;;;;;;;11.13;3.88;;;16.60;99.90;;;;;;5053865;28;20262;-75
2023/05/01 09:38:28;;;;;;;11.52;3.63;;;16.70;99.90;;;;;;5063023;28;20179;-75
2023/05/01 09:40:55;;;;;;;10.20;3.53;;;16.80;99.90;;;;;;5038774;28;20028;-75
2023/05/01 09:43:29;;;;;;;9.50;3.20;;;16.90;99.90;;;;;;5067761;28;20048;-75
2023/05/01 09:46:00;;;;;;;9.77;3.22;;;17.00;99.90;;;;;;5039447;28;20108;-75
2023/05/01 09:48:26;;;;;;;9.43;3.33;;;17.00;99.90;;;;;;5066640;28;20116;-75
2023/05/01 09:50:52;;;;;;;11.25;3.45;;;17.10;99.90;;;;;;5065215;28;20025;-75
2023/05/01 09:53:18;;;;;;;10.18;3.10;;;17.20;99.90;;;;;;5052308;28;20239;-75
2023/05/01 09:56:00;;;;;;;8.32;2.78;;;17.40;99.90;;;;;;5065534;28;20040;-75
2023/05/01 09:58:27;;;;;;;10.93;2.83;;;17.40;99.90;;;;;;5063595;28;20175;-75
2023/05/01 10:00:52;;;;;;;8.02;2.50;;;17.50;99.90;;;;;;5058929;28;20054;-75
2023/05/01 10:03:18;;;;;;;11.75;2.70;;;17.50;99.90;;;;;;5049465;28;20264;-75
2023/05/01 10:05:44;;;;;;;11.07;2.65;;;17.60;99.90;;;;;;5069141;28;20123;-75
2023/05/01 10:08:13;;;;;;;8.00;2.40;;;17.40;99.90;;;;;;5042946;28;20158;-75
2023/05/01 10:10:42;;;;;;;9.15;2.53;;;17.20;99.90;;;;;;5037027;28;20257;-75
2023/05/01 10:13:15;;;;;;;8.23;2.75;;;17.20;99.90;;;;;;5065272;28;20072;-75
2023/05/01 10:15:40;;;;;;;9.68;2.47;;;17.00;99.90;;;;;;5073718;28;20107;-75
2023/05/01 10:18:09;;;;;;;9.73;2.22;;;17.00;99.90;;;;;;5059439;28;20265;-75
2023/05/01 10:20:35;;;;;;;9.20;2.42;;;17.20;99.90;;;;;;5068027;28;20033;-75
2023/05/01 10:23:02;;;;;;;9.68;2.53;;;17.20;99.90;;;;;;5099328;28;20206;-75
2023/05/01 10:25:28;;;;;;;8.43;2.40;;;17.30;99.90;;;;;;5074719;28;20211;-75
2023/05/01 10:27:56;;;;;;;9.80;3.10;;;17.50;99.90;;;;;;5072917;28;20109;-76
2023/05/01 10:30:22;;;;;;;13.70;2.95;;;17.60;99.90;;;;;;5080665;28;20044;-75
2023/05/01 10:32:48;;;;;;;9.30;2.53;;;17.80;99.90;;;;;;5081815;28;20036;-75
2023/05/01 10:35:20;;;;;;;7.72;2.83;;;17.90;99.90;;;;;;5049435;28;20052;-75
2023/05/01 10:37:59;;;;;;;9.07;3.00;;;18.10;99.90;;;;;;5064455;28;20052;-76
2023/05/01 10:40:48;;;;;;;10.07;2.80;;;18.10;99.90;;;;;;5070243;28;20242;-75
2023/05/01 10:43:27;;;;;;;9.88;3.28;;;18.10;99.90;;;;;;5070888;28;20178;-75
2023/05/01 10:46:15;;;;;;;8.07;2.80;;;18.20;99.90;;;;;;5079012;28;20052;-75
2023/05/01 10:48:43;;;;;;;9.13;3.03;;;18.30;99.90;;;;;;5058164;28;20310;-75
2023/05/01 10:51:10;;;;;;;9.52;3.05;;;18.40;99.90;;;;;;5060088;28;20079;-76
2023/05/01 10:53:37;;;;;;;8.57;2.60;;;18.30;99.90;;;;;;5063362;28;20040;-76
2023/05/01 10:56:04;;;;;;;7.88;2.22;;;18.20;99.90;;;;;;5076098;28;20089;-76
2023/05/01 10:58:37;;;;;;;8.82;2.75;;;18.20;99.90;;;;;;5046215;28;20037;-76
2023/05/01 11:01:31;;;;;;;9.32;2.60;;;18.10;99.90;;;;;;5069697;28;20343;-76
2023/05/01 11:04:03;;;;;;;7.93;2.30;;;18.10;99.90;;;;;;5055964;28;20115;-76
2023/05/01 11:06:30;;;;;;;6.32;1.90;;;18.10;99.90;;;;;;5058120;28;20326;-76
2023/05/01 11:08:56;;;;;;;6.70;1.83;;;18.10;99.90;;;;;;5085930;28;20055;-76
2023/05/01 11:11:22;;;;;;;7.07;2.17;;;18.10;99.90;;;;;;5056211;28;20298;-76
2023/05/01 11:14:04;;;;;;;7.15;1.98;;;18.10;99.90;;;;;;5061677;28;20063;-76
2023/05/01 11:16:36;;;;;;;6.95;1.88;;;18.20;99.90;;;;;;5064387;28;20178;-75
2023/05/01 11:19:21;;;;;;;8.33;2.50;;;18.20;99.90;;;;;;5047629;28;20289;-76
2023/05/01 11:21:47;;;;;;;9.48;2.50;;;18.20;99.90;;;;;;5066802;28;20082;-76
2023/05/01 11:24:13;;;;;;;9.55;2.40;;;18.30;99.90;;;;;;5056491;28;20048;-76
2023/05/01 11:26:41;;;;;;;9.63;2.63;;;18.30;99.90;;;;;;5054895;28;20045;-76
2023/05/01 11:29:11;;;;;;;8.10;2.15;;;18.30;99.90;;;;;;5088143;28;20043;-76
2023/05/01 11:31:38;;;;;;;7.90;2.40;;;17.30;99.90;;;;;;5067343;28;20111;-76
2023/05/01 11:34:07;;;;;;;9.18;2.40;;;18.50;99.90;;;;;;5068776;28;20273;-76
2023/05/01 11:36:52;;;;;;;7.53;2.38;;;18.60;99.90;;;;;;5050988;28;20212;-76
2023/05/01 11:39:18;;;;;;;10.38;3.28;;;18.60;99.90;;;;;;5066806;28;20143;-76
2023/05/01 11:41:44;;;;;;;8.27;2.65;;;18.70;99.90;;;;;;5066465;28;20166;-76
2023/05/01 11:44:11;;;;;;;7.32;2.72;;;18.80;99.90;;;;;;5085298;28;20197;-76
2023/05/01 11:46:37;;;;;;;8.27;2.47;;;18.90;99.90;;;;;;5071221;28;20066;-76
2023/05/01 11:49:04;;;;;;;9.05;2.58;;;19.00;99.90;;;;;;5077367;28;20036;-76
2023/05/01 11:51:30;;;;;;;12.95;2.65;;;19.00;99.90;;;;;;5053957;28;20036;-76
2023/05/01 11:54:05;;;;;;;7.50;2.50;;;19.00;99.90;;;;;;5064198;28;20059;-76
2023/05/01 11:56:32;;;;;;;10.75;2.92;;;19.00;99.90;;;;;;5061014;28;20064;-76
2023/05/01 11:59:10;;;;;;;10.55;2.78;;;19.00;99.90;;;;;;5064058;28;20024;-76
2023/05/01 12:01:38;;;;;;;9.35;3.30;;;19.00;99.90;;;;;;5070051;28;20314;-76
2023/05/01 12:04:07;;;;;;;8.77;2.78;;;19.00;99.90;;;;;;5064965;28;20037;-76
2023/05/01 12:06:45;;;;;;;9.00;2.95;;;19.10;99.90;;;;;;5064342;28;20056;-76
2023/05/01 12:09:22;;;;;;;9.55;2.95;;;19.20;99.90;;;;;;5066410;28;20206;-76
2023/05/01 12:11:50;;;;;;;8.95;2.80;;;19.10;99.90;;;;;;5071584;28;20051;-76
2023/05/01 12:14:16;;;;;;;8.20;3.38;;;19.10;99.90;;;;;;5064383;28;20121;-76
2023/05/01 12:16:43;;;;;;;7.68;3.00;;;18.90;99.90;;;;;;5066542;28;20320;-76
2023/05/01 12:19:12;;;;;;;8.00;2.60;;;18.90;99.90;;;;;;5073734;28;20104;-76
2023/05/01 12:21:38;;;;;;;7.40;2.70;;;18.70;99.90;;;;;;5078666;28;20037;-76
2023/05/01 12:24:15;;;;;;;10.35;3.00;;;18.80;99.90;;;;;;5072971;28;20048;-76
2023/05/01 12:26:41;;;;;;;8.50;2.70;;;18.80;99.90;;;;;;5058692;28;20068;-76
2023/05/01 12:29:08;;;;;;;7.35;2.50;;;18.80;99.90;;;;;;5065120;28;20024;-76
2023/05/01 12:31:35;;;;;;;7.57;2.50;;;18.90;99.90;;;;;;5058352;28;20318;-76
2023/05/01 12:34:02;;;;;;;8.07;2.25;;;18.80;99.90;;;;;;5077167;28;20262;-76
2023/05/01 12:36:30;;;;;;;7.72;2.00;;;18.70;99.90;;;;;;5065153;28;20122;-76
2023/05/01 12:39:05;;;;;;;8.57;1.90;;;18.70;99.90;;;;;;5056511;28;20028;-76
2023/05/01 12:41:41;;;;;;;8.43;1.90;;;18.70;99.90;;;;;;5068073;28;20296;-76
2023/05/01 12:44:23;;;;;;;7.35;2.00;;;18.80;99.90;;;;;;5037030;28;20255;-76
2023/05/01 12:46:52;;;;;;;6.47;1.90;;;18.90;99.90;;;;;;5089159;28;20032;-76
2023/05/01 12:49:22;;;;;;;5.10;1.80;;;18.90;99.90;;;;;;5060793;28;20029;-76